sensor_id;sensor_type;location;lat;lon;timestamp;pressure;altitude;pressure_sealevel;temperature;humidity
7614;BME280;3848;42.016;23.098;2023-12-07T00:00:28;96723.19;;;7.86;100.00
7614;BME280;3848;42.016;23.098;2023-12-07T00:02:55;96725.72;;;7.87;100.00
7614;BME280;3848;42.016;23.098;2023-12-07T00:05:22;96634.09;;;7.21;100.00
7614;BME280;3848;42.016;23.098;2023-12-07T00:07:50;96744.28;;;7.85;100.00
7614;BME280;3848;42.016;23.098;2023-12-07T00:10:17;96735.84;;;7.84;100.00
7614;BME280;3848;42.016;23.098;2023-12-07T00:12:44;96740.06;;;7.85;100.00
7614;BME280;3848;42.016;23.098;2023-12-07T00:15:11;96739.25;;;7.77;100.00
7614;BME280;3848;42.016;23.098;2023-12-07T00:17:38;96733.34;;;7.75;100.00
7614;BME280;3848;42.016;23.098;2023-12-07T00:20:06;96743.47;;;7.77;100.00
7614;BME280;3848;42.016;23.098;2023-12-07T00:22:33;96744.31;;;7.74;100.00
7614;BME280;3848;42.016;23.098;2023-12-07T00:25:02;96748.53;;;7.74;100.00
7614;BME280;3848;42.016;23.098;2023-12-07T00:27:29;96747.69;;;7.70;100.00
7614;BME280;3848;42.016;23.098;2023-12-07T00:29:56;96749.38;;;7.65;100.00
7614;BME280;3848;42.016;23.098;2023-12-07T00:32:23;96749.41;;;7.63;100.00
7614;BME280;3848;42.016;23.098;2023-12-07T00:34:52;96750.25;;;7.61;100.00
7614;BME280;3848;42.016;23.098;2023-12-07T00:37:19;96756.16;;;7.57;100.00
7614;BME280;3848;42.016;23.098;2023-12-07T00:39:46;96751.97;;;7.47;100.00
7614;BME280;3848;42.016;23.098;2023-12-07T00:42:15;96757.03;;;7.39;100.00
7614;BME280;3848;42.016;23.098;2023-12-07T00:44:42;96739.34;;;7.28;100.00
7614;BME280;3848;42.016;23.098;2023-12-07T00:47:09;96734.31;;;7.22;100.00
7614;BME280;3848;42.016;23.098;2023-12-07T00:49:37;96761.25;;;7.36;100.00
7614;BME280;3848;42.016;23.098;2023-12-07T00:52:05;96761.25;;;7.34;100.00
7614;BME280;3848;42.016;23.098;2023-12-07T00:54:32;96759.56;;;7.25;100.00
7614;BME280;3848;42.016;23.098;2023-12-07T00:56:59;96762.13;;;7.21;100.00
7614;BME280;3848;42.016;23.098;2023-12-07T00:59:27;96762.09;;;7.24;100.00
7614;BME280;3848;42.016;23.098;2023-12-07T01:01:59;96763.81;;;7.29;100.00
7614;BME280;3848;42.016;23.098;2023-12-07T01:04:27;96752.00;;;7.27;100.00
7614;BME280;3848;42.016;23.098;2023-12-07T01:06:54;96762.94;;;7.33;100.00
7614;BME280;3848;42.016;23.098;2023-12-07T01:09:21;96719.16;;;7.07;100.00
7614;BME280;3848;42.016;23.098;2023-12-07T01:11:48;96764.66;;;7.31;100.00
7614;BME280;3848;42.016;23.098;2023-12-07T01:14:15;96763.81;;;7.31;100.00
7614;BME280;3848;42.016;23.098;2023-12-07T01:16:44;96657.75;;;6.64;100.00
7614;BME280;3848;42.016;23.098;2023-12-07T01:19:11;96758.75;;;7.20;100.00
7614;BME280;3848;42.016;23.098;2023-12-07T01:21:39;96759.56;;;7.25;100.00
7614;BME280;3848;42.016;23.098;2023-12-07T01:24:07;96767.19;;;7.30;100.00
7614;BME280;3848;42.016;23.098;2023-12-07T01:26:34;96757.91;;;7.32;100.00
7614;BME280;3848;42.016;23.098;2023-12-07T01:29:01;96758.75;;;7.32;100.00
7614;BME280;3848;42.016;23.098;2023-12-07T01:31:28;96752.84;;;7.35;100.00
7614;BME280;3848;42.016;23.098;2023-12-07T01:33:57;96755.38;;;7.33;100.00
7614;BME280;3848;42.016;23.098;2023-12-07T01:36:24;96751.16;;;7.28;100.00
7614;BME280;3848;42.016;23.098;2023-12-07T01:38:51;96744.41;;;7.28;100.00
7614;BME280;3848;42.016;23.098;2023-12-07T01:41:18;96748.63;;;7.28;100.00
7614;BME280;3848;42.016;23.098;2023-12-07T01:43:45;96746.94;;;7.31;100.00
7614;BME280;3848;42.016;23.098;2023-12-07T01:46:13;96639.28;;;6.68;100.00
7614;BME280;3848;42.016;23.098;2023-12-07T01:48:41;96747.81;;;7.29;100.00
7614;BME280;3848;42.016;23.098;2023-12-07T01:51:10;96734.31;;;7.31;100.00
7614;BME280;3848;42.016;23.098;2023-12-07T01:53:39;96737.66;;;7.40;100.00
7614;BME280;3848;42.016;23.098;2023-12-07T01:56:07;96739.31;;;7.47;100.00
7614;BME280;3848;42.016;23.098;2023-12-07T01:58:36;96730.06;;;7.44;100.00
7614;BME280;3848;42.016;23.098;2023-12-07T02:01:03;96741.00;;;7.54;100.00
7614;BME280;3848;42.016;23.098;2023-12-07T02:03:31;96727.53;;;7.52;100.00
7614;BME280;3848;42.016;23.098;2023-12-07T02:05:59;96731.72;;;7.60;100.00
7614;BME280;3848;42.016;23.098;2023-12-07T02:08:28;96725.81;;;7.60;100.00
7614;BME280;3848;42.016;23.098;2023-12-07T02:10:55;96719.06;;;7.60;100.00
7614;BME280;3848;42.016;23.098;2023-12-07T02:13:22;96727.50;;;7.58;100.00
7614;BME280;3848;42.016;23.098;2023-12-07T02:15:49;96714.03;;;7.53;100.00
7614;BME280;3848;42.016;23.098;2023-12-07T02:18:21;96713.19;;;7.57;100.00
7614;BME280;3848;42.016;23.098;2023-12-07T02:20:55;96717.38;;;7.64;100.00
7614;BME280;3848;42.016;23.098;2023-12-07T02:23:25;96717.34;;;7.67;100.00
7614;BME280;3848;42.016;23.098;2023-12-07T02:29:17;96714.81;;;7.67;100.00
7614;BME280;3848;42.016;23.098;2023-12-07T02:31:45;96694.59;;;7.69;100.00
7614;BME280;3848;42.016;23.098;2023-12-07T02:34:12;96695.44;;;7.69;100.00
7614;BME280;3848;42.016;23.098;2023-12-07T02:36:40;96692.91;;;7.66;100.00
7614;BME280;3848;42.016;23.098;2023-12-07T02:39:10;96691.22;;;7.67;100.00
7614;BME280;3848;42.016;23.098;2023-12-07T02:41:39;96684.53;;;7.58;100.00
7614;BME280;3848;42.016;23.098;2023-12-07T02:44:06;96678.59;;;7.62;100.00
7614;BME280;3848;42.016;23.098;2023-12-07T02:46:35;96680.31;;;7.57;100.00
7614;BME280;3848;42.016;23.098;2023-12-07T02:49:02;96673.56;;;7.60;100.00
7614;BME280;3848;42.016;23.098;2023-12-07T02:51:29;96672.75;;;7.57;100.00
7614;BME280;3848;42.016;23.098;2023-12-07T02:53:56;96685.41;;;7.52;100.00
7614;BME280;3848;42.016;23.098;2023-12-07T02:56:23;96687.09;;;7.46;100.00
7614;BME280;3848;42.016;23.098;2023-12-07T02:58:50;96683.75;;;7.38;100.00
7614;BME280;3848;42.016;23.098;2023-12-07T03:01:17;96692.19;;;7.35;100.00
7614;BME280;3848;42.016;23.098;2023-12-07T03:03:46;96688.81;;;7.36;100.00
7614;BME280;3848;42.016;23.098;2023-12-07T03:06:13;96694.72;;;7.33;100.00
7614;BME280;3848;42.016;23.098;2023-12-07T03:08:41;96693.03;;;7.31;100.00
7614;BME280;3848;42.016;23.098;2023-12-07T03:11:08;96707.34;;;7.27;100.00
7614;BME280;3848;42.016;23.098;2023-12-07T03:13:35;96635.88;;;6.81;100.00
7614;BME280;3848;42.016;23.098;2023-12-07T03:16:07;96712.44;;;7.18;100.00
7614;BME280;3848;42.016;23.098;2023-12-07T03:18:35;96712.44;;;7.08;100.00
7614;BME280;3848;42.016;23.098;2023-12-07T03:21:04;96716.66;;;7.09;100.00
7614;BME280;3848;42.016;23.098;2023-12-07T03:23:31;96715.81;;;7.11;100.00
7614;BME280;3848;42.016;23.098;2023-12-07T03:25:57;96718.34;;;7.11;100.00
7614;BME280;3848;42.016;23.098;2023-12-07T03:28:24;96718.34;;;7.11;100.00
7614;BME280;3848;42.016;23.098;2023-12-07T03:30:51;96717.50;;;7.15;100.00
7614;BME280;3848;42.016;23.098;2023-12-07T03:33:18;96723.38;;;7.16;100.00
7614;BME280;3848;42.016;23.098;2023-12-07T03:35:45;96720.00;;;7.20;100.00
7614;BME280;3848;42.016;23.098;2023-12-07T03:38:14;96719.16;;;7.19;100.00
7614;BME280;3848;42.016;23.098;2023-12-07T03:40:41;96722.53;;;7.21;100.00
7614;BME280;3848;42.016;23.098;2023-12-07T03:43:08;96723.38;;;7.23;100.00
7614;BME280;3848;42.016;23.098;2023-12-07T03:45:35;96716.63;;;7.25;100.00
7614;BME280;3848;42.016;23.098;2023-12-07T03:48:02;96720.84;;;7.22;100.00
7614;BME280;3848;42.016;23.098;2023-12-07T03:50:29;96722.53;;;7.21;100.00
7614;BME280;3848;42.016;23.098;2023-12-07T03:52:56;96707.38;;;7.21;100.00
7614;BME280;3848;42.016;23.098;2023-12-07T03:55:25;96706.53;;;7.19;100.00
7614;BME280;3848;42.016;23.098;2023-12-07T03:57:52;96712.44;;;7.29;100.00
7614;BME280;3848;42.016;23.098;2023-12-07T04:00:18;96710.72;;;7.26;100.00
7614;BME280;3848;42.016;23.098;2023-12-07T04:02:45;96714.09;;;7.24;100.00
7614;BME280;3848;42.016;23.098;2023-12-07T04:05:13;96714.94;;;7.20;100.00
7614;BME280;3848;42.016;23.098;2023-12-07T04:07:40;96717.47;;;7.24;100.00
7614;BME280;3848;42.016;23.098;2023-12-07T04:10:07;96709.03;;;7.25;100.00
7614;BME280;3848;42.016;23.098;2023-12-07T04:12:36;96719.16;;;7.31;100.00
7614;BME280;3848;42.016;23.098;2023-12-07T04:15:04;96711.56;;;7.31;100.00
7614;BME280;3848;42.016;23.098;2023-12-07T04:17:31;96728.44;;;7.29;100.00
7614;BME280;3848;42.016;23.098;2023-12-07T04:19:58;96711.56;;;7.28;100.00
7614;BME280;3848;42.016;23.098;2023-12-07T04:22:25;96722.53;;;7.33;100.00
7614;BME280;3848;42.016;23.098;2023-12-07T04:24:52;96725.03;;;7.38;100.00
7614;BME280;3848;42.016;23.098;2023-12-07T04:27:18;96730.09;;;7.38;100.00
7614;BME280;3848;42.016;23.098;2023-12-07T04:29:47;96729.25;;;7.38;100.00
7614;BME280;3848;42.016;23.098;2023-12-07T04:32:14;96735.13;;;7.43;100.00
7614;BME280;3848;42.016;23.098;2023-12-07T04:34:41;96732.59;;;7.43;100.00
7614;BME280;3848;42.016;23.098;2023-12-07T04:37:08;96735.13;;;7.43;100.00
7614;BME280;3848;42.016;23.098;2023-12-07T04:39:36;96735.97;;;7.43;100.00
7614;BME280;3848;42.016;23.098;2023-12-07T04:42:03;96739.34;;;7.44;100.00
7614;BME280;3848;42.016;23.098;2023-12-07T04:44:30;96741.00;;;7.45;100.00
7614;BME280;3848;42.016;23.098;2023-12-07T04:46:58;96738.47;;;7.46;100.00
7614;BME280;3848;42.016;23.098;2023-12-07T04:49:26;96741.00;;;7.45;100.00
7614;BME280;3848;42.016;23.098;2023-12-07T04:51:53;96760.41;;;7.52;100.00
7614;BME280;3848;42.016;23.098;2023-12-07T04:54:20;96757.88;;;7.53;100.00
7614;BME280;3848;42.016;23.098;2023-12-07T04:56:47;96765.47;;;7.50;100.00
7614;BME280;3848;42.016;23.098;2023-12-07T04:59:14;96761.22;;;7.48;100.00
7614;BME280;3848;42.016;23.098;2023-12-07T05:01:40;96761.22;;;7.49;100.00
7614;BME280;3848;42.016;23.098;2023-12-07T05:04:09;96766.31;;;7.51;100.00
7614;BME280;3848;42.016;23.098;2023-12-07T05:06:36;96775.56;;;7.53;100.00
7614;BME280;3848;42.016;23.098;2023-12-07T05:09:03;96769.66;;;7.53;100.00
7614;BME280;3848;42.016;23.098;2023-12-07T05:11:30;96769.66;;;7.51;100.00
7614;BME280;3848;42.016;23.098;2023-12-07T05:13:57;96771.34;;;7.54;100.00
7614;BME280;3848;42.016;23.098;2023-12-07T05:16:24;96775.56;;;7.55;100.00
7614;BME280;3848;42.016;23.098;2023-12-07T05:18:51;96773.88;;;7.55;100.00
7614;BME280;3848;42.016;23.098;2023-12-07T05:21:20;96777.22;;;7.56;100.00
7614;BME280;3848;42.016;23.098;2023-12-07T05:23:47;96776.41;;;7.42;100.00
7614;BME280;3848;42.016;23.098;2023-12-07T05:26:14;96786.50;;;7.45;100.00
7614;BME280;3848;42.016;23.098;2023-12-07T05:28:41;96785.66;;;7.44;100.00
7614;BME280;3848;42.016;23.098;2023-12-07T05:31:08;96788.19;;;7.43;100.00
7614;BME280;3848;42.016;23.098;2023-12-07T05:33:35;96782.31;;;7.41;100.00
7614;BME280;3848;42.016;23.098;2023-12-07T05:36:02;96785.69;;;7.40;100.00
7614;BME280;3848;42.016;23.098;2023-12-07T05:38:31;96786.53;;;7.40;100.00
7614;BME280;3848;42.016;23.098;2023-12-07T05:40:57;96789.03;;;7.43;100.00
7614;BME280;3848;42.016;23.098;2023-12-07T05:43:24;96783.97;;;7.43;100.00
7614;BME280;3848;42.016;23.098;2023-12-07T05:45:52;96791.56;;;7.46;100.00
7614;BME280;3848;42.016;23.098;2023-12-07T05:48:19;96794.09;;;7.43;100.00
7614;BME280;3848;42.016;23.098;2023-12-07T05:50:46;96790.75;;;7.40;100.00
7614;BME280;3848;42.016;23.098;2023-12-07T05:53:13;96789.06;;;7.39;100.00
7614;BME280;3848;42.016;23.098;2023-12-07T05:55:41;96792.44;;;7.38;100.00
7614;BME280;3848;42.016;23.098;2023-12-07T05:58:08;96794.13;;;7.34;100.00
7614;BME280;3848;42.016;23.098;2023-12-07T06:00:35;96789.06;;;7.32;100.00
7614;BME280;3848;42.016;23.098;2023-12-07T06:03:03;96787.38;;;7.28;100.00
7614;BME280;3848;42.016;23.098;2023-12-07T06:05:30;96788.22;;;7.27;100.00
7614;BME280;3848;42.016;23.098;2023-12-07T06:07:57;96786.53;;;7.23;100.00
7614;BME280;3848;42.016;23.098;2023-12-07T06:10:24;96790.75;;;7.23;100.00
7614;BME280;3848;42.016;23.098;2023-12-07T06:12:53;96790.75;;;7.23;100.00
7614;BME280;3848;42.016;23.098;2023-12-07T06:15:22;96789.06;;;7.20;100.00
7614;BME280;3848;42.016;23.098;2023-12-07T06:17:49;96795.78;;;7.23;100.00
7614;BME280;3848;42.016;23.098;2023-12-07T06:20:16;96790.75;;;7.23;100.00
7614;BME280;3848;42.016;23.098;2023-12-07T06:22:43;96798.31;;;7.21;100.00
7614;BME280;3848;42.016;23.098;2023-12-07T06:25:10;96798.31;;;7.24;100.00
7614;BME280;3848;42.016;23.098;2023-12-07T06:27:38;96788.22;;;7.27;100.00
7614;BME280;3848;42.016;23.098;2023-12-07T06:30:07;96794.13;;;7.29;100.00
7614;BME280;3848;42.016;23.098;2023-12-07T06:32:34;96805.06;;;7.31;100.00
7614;BME280;3848;42.016;23.098;2023-12-07T06:35:01;96793.28;;;7.29;100.00
7614;BME280;3848;42.016;23.098;2023-12-07T06:37:30;96802.56;;;7.30;100.00
7614;BME280;3848;42.016;23.098;2023-12-07T06:39:57;96776.44;;;7.23;100.00
7614;BME280;3848;42.016;23.098;2023-12-07T06:42:24;96803.38;;;7.41;100.00
7614;BME280;3848;42.016;23.098;2023-12-07T06:44:51;96800.84;;;7.44;100.00
7614;BME280;3848;42.016;23.098;2023-12-07T06:47:20;96807.59;;;7.51;100.00
7614;BME280;3848;42.016;23.098;2023-12-07T06:49:47;96798.31;;;7.52;100.00
7614;BME280;3848;42.016;23.098;2023-12-07T06:52:14;96800.81;;;7.56;100.00
7614;BME280;3848;42.016;23.098;2023-12-07T06:54:41;96796.63;;;7.57;100.00
7614;BME280;3848;42.016;23.098;2023-12-07T06:57:08;96799.97;;;7.59;100.00
7614;BME280;3848;42.016;23.098;2023-12-07T06:59:35;96803.34;;;7.64;100.00
7614;BME280;3848;42.016;23.098;2023-12-07T07:02:09;96803.34;;;7.64;100.00
7614;BME280;3848;42.016;23.098;2023-12-07T07:04:38;96804.19;;;7.63;100.00
7614;BME280;3848;42.016;23.098;2023-12-07T07:07:07;96799.97;;;7.60;100.00
7614;BME280;3848;42.016;23.098;2023-12-07T07:09:34;96807.53;;;7.68;100.00
7614;BME280;3848;42.016;23.098;2023-12-07T07:12:01;96803.31;;;7.70;100.00
7614;BME280;3848;42.016;23.098;2023-12-07T07:14:30;96812.59;;;7.68;100.00
7614;BME280;3848;42.016;23.098;2023-12-07T07:16:57;96815.13;;;7.68;100.00
7614;BME280;3848;42.016;23.098;2023-12-07T07:19:24;96821.03;;;7.67;100.00
7614;BME280;3848;42.016;23.098;2023-12-07T07:21:53;96821.88;;;7.61;100.00
7614;BME280;3848;42.016;23.098;2023-12-07T07:24:20;96806.72;;;7.48;100.00
7614;BME280;3848;42.016;23.098;2023-12-07T07:26:47;96824.41;;;7.63;100.00
7614;BME280;3848;42.016;23.098;2023-12-07T07:29:14;96827.75;;;7.70;100.00
7614;BME280;3848;42.016;23.098;2023-12-07T07:31:41;96822.69;;;7.70;100.00
7614;BME280;3848;42.016;23.098;2023-12-07T07:34:07;96826.94;;;7.74;100.00
7614;BME280;3848;42.016;23.098;2023-12-07T07:36:35;96824.38;;;7.78;100.00
7614;BME280;3848;42.016;23.098;2023-12-07T07:39:03;96822.69;;;7.80;100.00
7614;BME280;3848;42.016;23.098;2023-12-07T07:41:34;96825.19;;;7.85;100.00
7614;BME280;3848;42.016;23.098;2023-12-07T07:44:02;96831.94;;;7.89;100.00
7614;BME280;3848;42.016;23.098;2023-12-07T07:46:29;96826.88;;;7.93;100.00
7614;BME280;3848;42.016;23.098;2023-12-07T07:48:56;96838.69;;;7.91;100.00
7614;BME280;3848;42.016;23.098;2023-12-07T07:51:22;96841.22;;;7.85;100.00
7614;BME280;3848;42.016;23.098;2023-12-07T07:53:49;96847.97;;;7.88;100.00
7614;BME280;3848;42.016;23.098;2023-12-07T07:56:18;96850.50;;;7.92;100.00
7614;BME280;3848;42.016;23.098;2023-12-07T07:58:45;96849.63;;;7.98;100.00
7614;BME280;3848;42.016;23.098;2023-12-07T08:01:12;96850.47;;;8.02;100.00
7614;BME280;3848;42.016;23.098;2023-12-07T08:03:39;96853.81;;;8.08;100.00
7614;BME280;3848;42.016;23.098;2023-12-07T08:06:07;96849.59;;;8.13;100.00
7614;BME280;3848;42.016;23.098;2023-12-07T08:08:34;96861.38;;;8.19;100.00
7614;BME280;3848;42.016;23.098;2023-12-07T08:11:01;96854.66;;;8.16;100.00
7614;BME280;3848;42.016;23.098;2023-12-07T08:13:29;96860.53;;;8.23;100.00
7614;BME280;3848;42.016;23.098;2023-12-07T08:15:56;96857.13;;;8.27;100.00
7614;BME280;3848;42.016;23.098;2023-12-07T08:18:23;96859.66;;;8.33;100.00
7614;BME280;3848;42.016;23.098;2023-12-07T08:20:51;96859.66;;;8.33;100.00
7614;BME280;3848;42.016;23.098;2023-12-07T08:23:18;96820.06;;;8.08;100.00
7614;BME280;3848;42.016;23.098;2023-12-07T08:25:45;96872.34;;;8.36;100.00
7614;BME280;3848;42.016;23.098;2023-12-07T08:28:13;96863.06;;;8.35;100.00
7614;BME280;3848;42.016;23.098;2023-12-07T08:30:42;96865.53;;;8.47;100.00
7614;BME280;3848;42.016;23.098;2023-12-07T08:33:09;96877.31;;;8.54;100.00
7614;BME280;3848;42.016;23.098;2023-12-07T08:35:36;96871.41;;;8.57;100.00
7614;BME280;3848;42.016;23.098;2023-12-07T08:38:03;96871.38;;;8.63;100.00
7614;BME280;3848;42.016;23.098;2023-12-07T08:40:30;96878.09;;;8.66;100.00
7614;BME280;3848;42.016;23.098;2023-12-07T08:42:58;96873.03;;;8.67;100.00
7614;BME280;3848;42.016;23.098;2023-12-07T08:45:25;96887.41;;;8.64;100.00
7614;BME280;3848;42.016;23.098;2023-12-07T08:47:53;96874.72;;;8.67;100.00
7614;BME280;3848;42.016;23.098;2023-12-07T08:50:20;96869.66;;;8.68;100.00
7614;BME280;3848;42.016;23.098;2023-12-07T08:52:47;96867.09;;;8.70;100.00
7614;BME280;3848;42.016;23.098;2023-12-07T08:55:14;96873.84;;;8.71;100.00
7614;BME280;3848;42.016;23.098;2023-12-07T08:57:42;96878.91;;;8.71;100.00
7614;BME280;3848;42.016;23.098;2023-12-07T09:00:10;96884.84;;;8.68;100.00
7614;BME280;3848;42.016;23.098;2023-12-07T09:02:38;96876.38;;;8.71;100.00
7614;BME280;3848;42.016;23.098;2023-12-07T09:05:07;96873.84;;;8.74;100.00
7614;BME280;3848;42.016;23.098;2023-12-07T09:07:34;96867.94;;;8.75;100.00
7614;BME280;3848;42.016;23.098;2023-12-07T09:10:02;96870.47;;;8.72;100.00
7614;BME280;3848;42.016;23.098;2023-12-07T09:12:30;96860.31;;;8.78;100.00
7614;BME280;3848;42.016;23.098;2023-12-07T09:14:57;96867.03;;;8.83;100.00
7614;BME280;3848;42.016;23.098;2023-12-07T09:17:25;96808.94;;;8.59;100.00
7614;BME280;3848;42.016;23.098;2023-12-07T09:19:53;96845.91;;;8.86;100.00
7614;BME280;3848;42.016;23.098;2023-12-07T09:22:21;96854.28;;;9.00;100.00
7614;BME280;3848;42.016;23.098;2023-12-07T09:24:49;96854.28;;;8.99;100.00
7614;BME280;3848;42.016;23.098;2023-12-07T09:27:18;96852.59;;;8.95;100.00
7614;BME280;3848;42.016;23.098;2023-12-07T09:29:45;96853.44;;;8.95;100.00
7614;BME280;3848;42.016;23.098;2023-12-07T09:32:15;96851.72;;;9.02;100.00
7614;BME280;3848;42.016;23.098;2023-12-07T09:34:41;96853.38;;;9.07;100.00
7614;BME280;3848;42.016;23.098;2023-12-07T09:37:09;96844.09;;;9.05;100.00
7614;BME280;3848;42.016;23.098;2023-12-07T09:39:37;96831.47;;;9.00;100.00
7614;BME280;3848;42.016;23.098;2023-12-07T09:42:05;96833.13;;;9.03;100.00
7614;BME280;3848;42.016;23.098;2023-12-07T09:44:32;96836.50;;;9.06;100.00
7614;BME280;3848;42.016;23.098;2023-12-07T09:47:01;96825.47;;;9.10;100.00
7614;BME280;3848;42.016;23.098;2023-12-07T09:49:29;96827.13;;;9.16;100.00
7614;BME280;3848;42.016;23.098;2023-12-07T09:51:58;96824.56;;;9.16;100.00
7614;BME280;3848;42.016;23.098;2023-12-07T09:54:26;96822.06;;;9.13;100.00
7614;BME280;3848;42.016;23.098;2023-12-07T09:56:56;96817.84;;;9.16;100.00
7614;BME280;3848;42.016;23.098;2023-12-07T09:59:23;96810.19;;;9.21;100.00
7614;BME280;3848;42.016;23.098;2023-12-07T10:01:50;96812.75;;;9.20;100.00
7614;BME280;3848;42.016;23.098;2023-12-07T10:04:19;96820.31;;;9.24;100.00
7614;BME280;3848;42.016;23.098;2023-12-07T10:06:48;96810.16;;;9.26;100.00
7614;BME280;3848;42.016;23.098;2023-12-07T10:09:16;96813.53;;;9.25;100.00
7614;BME280;3848;42.016;23.098;2023-12-07T10:11:44;96807.56;;;9.30;100.00
7614;BME280;3848;42.016;23.098;2023-12-07T10:14:14;96805.88;;;9.32;100.00
7614;BME280;3848;42.016;23.098;2023-12-07T10:16:52;96809.28;;;9.30;100.00
7614;BME280;3848;42.016;23.098;2023-12-07T10:19:21;96794.13;;;9.24;100.00
7614;BME280;3848;42.016;23.098;2023-12-07T10:21:48;96796.56;;;9.31;100.00
7614;BME280;3848;42.016;23.098;2023-12-07T10:24:19;96800.81;;;9.31;100.00
7614;BME280;3848;42.016;23.098;2023-12-07T10:26:48;96793.19;;;9.31;100.00
7614;BME280;3848;42.016;23.098;2023-12-07T10:29:18;96789.00;;;9.30;100.00
7614;BME280;3848;42.016;23.098;2023-12-07T10:31:45;96782.28;;;9.23;100.00
7614;BME280;3848;42.016;23.098;2023-12-07T10:34:17;96795.84;;;9.15;100.00
7614;BME280;3848;42.016;23.098;2023-12-07T10:36:46;96790.78;;;9.15;100.00
7614;BME280;3848;42.016;23.098;2023-12-07T10:39:14;96779.94;;;9.03;100.00
7614;BME280;3848;42.016;23.098;2023-12-07T10:41:43;96785.75;;;9.12;100.00
7614;BME280;3848;42.016;23.098;2023-12-07T10:44:13;96784.03;;;9.16;100.00
7614;BME280;3848;42.016;23.098;2023-12-07T10:46:43;96774.72;;;9.21;100.00
7614;BME280;3848;42.016;23.098;2023-12-07T10:49:17;96782.19;;;9.33;100.00
7614;BME280;3848;42.016;23.098;2023-12-07T10:51:52;96775.41;;;9.40;100.00
7614;BME280;3848;42.016;23.098;2023-12-07T10:54:22;96779.59;;;9.41;100.00
7614;BME280;3848;42.016;23.098;2023-12-07T10:56:52;96776.09;;;9.53;100.00
7614;BME280;3848;42.016;23.098;2023-12-07T10:59:21;96771.88;;;9.53;100.00
7614;BME280;3848;42.016;23.098;2023-12-07T11:01:52;96776.97;;;9.50;100.00
7614;BME280;3848;42.016;23.098;2023-12-07T11:04:19;96780.44;;;9.43;100.00
7614;BME280;3848;42.016;23.098;2023-12-07T11:06:49;96762.75;;;9.32;100.00
7614;BME280;3848;42.016;23.098;2023-12-07T11:09:21;96716.63;;;8.98;100.00
7614;BME280;3848;42.016;23.098;2023-12-07T11:11:54;96767.81;;;9.35;100.00
7614;BME280;3848;42.016;23.098;2023-12-07T11:14:23;96772.81;;;9.43;100.00
7614;BME280;3848;42.016;23.098;2023-12-07T11:16:52;96770.22;;;9.49;100.00
7614;BME280;3848;42.016;23.098;2023-12-07T11:19:44;96757.50;;;9.54;100.00
7614;BME280;3848;42.016;23.098;2023-12-07T11:22:13;96760.97;;;9.43;100.00
7614;BME280;3848;42.016;23.098;2023-12-07T11:24:52;96757.66;;;9.35;100.00
7614;BME280;3848;42.016;23.098;2023-12-07T11:27:20;96766.94;;;9.41;100.00
7614;BME280;3848;42.016;23.098;2023-12-07T11:29:48;96769.47;;;9.36;100.00
7614;BME280;3848;42.016;23.098;2023-12-07T11:32:16;96763.59;;;9.34;100.00
7614;BME280;3848;42.016;23.098;2023-12-07T11:34:44;96751.88;;;9.23;100.00
7614;BME280;3848;42.016;23.098;2023-12-07T11:37:15;96758.63;;;9.24;100.00
7614;BME280;3848;42.016;23.098;2023-12-07T11:39:43;96761.19;;;9.21;100.00
7614;BME280;3848;42.016;23.098;2023-12-07T11:42:11;96757.00;;;9.16;100.00
7614;BME280;3848;42.016;23.098;2023-12-07T11:44:40;96753.63;;;9.18;100.00
7614;BME280;3848;42.016;23.098;2023-12-07T11:47:08;96753.59;;;9.21;100.00
7614;BME280;3848;42.016;23.098;2023-12-07T11:49:37;96757.84;;;9.19;100.00
7614;BME280;3848;42.016;23.098;2023-12-07T11:52:14;96761.28;;;9.10;100.00
7614;BME280;3848;42.016;23.098;2023-12-07T11:54:44;96750.38;;;9.00;100.00
7614;BME280;3848;42.016;23.098;2023-12-07T11:57:11;96760.53;;;8.99;100.00
7614;BME280;3848;42.016;23.098;2023-12-07T11:59:38;96765.63;;;8.94;100.00
7614;BME280;3848;42.016;23.098;2023-12-07T12:02:05;96754.69;;;8.88;100.00
7614;BME280;3848;42.016;23.098;2023-12-07T12:04:32;96753.00;;;8.90;100.00
7614;BME280;3848;42.016;23.098;2023-12-07T12:07:01;96758.94;;;8.84;100.00
7614;BME280;3848;42.016;23.098;2023-12-07T12:09:28;96755.56;;;8.85;100.00
7614;BME280;3848;42.016;23.098;2023-12-07T12:11:56;96753.91;;;8.81;100.00
7614;BME280;3848;42.016;23.098;2023-12-07T12:14:26;96759.84;;;8.78;100.00
7614;BME280;3848;42.016;23.098;2023-12-07T12:16:53;96755.66;;;8.70;100.00
7614;BME280;3848;42.016;23.098;2023-12-07T12:19:22;96759.09;;;8.64;100.00
7614;BME280;3848;42.016;23.098;2023-12-07T12:21:49;96768.41;;;8.59;100.00
7614;BME280;3848;42.016;23.098;2023-12-07T12:24:18;96733.97;;;8.35;100.00
7614;BME280;3848;42.016;23.098;2023-12-07T12:26:46;96746.63;;;8.34;100.00
7614;BME280;3848;42.016;23.098;2023-12-07T12:29:14;96753.34;;;8.36;100.00
7614;BME280;3848;42.016;23.098;2023-12-07T12:31:42;96753.38;;;8.25;100.00
7614;BME280;3848;42.016;23.098;2023-12-07T12:34:10;96754.25;;;8.21;100.00
7614;BME280;3848;42.016;23.098;2023-12-07T12:36:38;96751.75;;;8.14;100.00
7614;BME280;3848;42.016;23.098;2023-12-07T12:39:06;96755.97;;;8.09;100.00
7614;BME280;3848;42.016;23.098;2023-12-07T12:41:35;96752.63;;;8.04;100.00
7614;BME280;3848;42.016;23.098;2023-12-07T12:44:04;96757.69;;;8.02;100.00
7614;BME280;3848;42.016;23.098;2023-12-07T12:46:31;96747.56;;;8.02;100.00
7614;BME280;3848;42.016;23.098;2023-12-07T12:49:02;96756.81;;;8.11;100.00
7614;BME280;3848;42.016;23.098;2023-12-07T12:51:30;96664.34;;;7.43;100.00
7614;BME280;3848;42.016;23.098;2023-12-07T12:53:59;96762.75;;;8.04;100.00
7614;BME280;3848;42.016;23.098;2023-12-07T12:56:27;96774.59;;;7.97;100.00
7614;BME280;3848;42.016;23.098;2023-12-07T12:58:55;96774.59;;;7.89;100.00
7614;BME280;3848;42.016;23.098;2023-12-07T13:01:23;96777.13;;;7.91;100.00
7614;BME280;3848;42.016;23.098;2023-12-07T13:03:50;96767.03;;;7.82;100.00
7614;BME280;3848;42.016;23.098;2023-12-07T13:06:17;96779.66;;;7.89;100.00
7614;BME280;3848;42.016;23.098;2023-12-07T13:08:45;96780.53;;;7.84;100.00
7614;BME280;3848;42.016;23.098;2023-12-07T13:11:15;96762.88;;;7.75;100.00
7614;BME280;3848;42.016;23.098;2023-12-07T13:13:42;96776.34;;;7.75;100.00
7614;BME280;3848;42.016;23.098;2023-12-07T13:16:10;96787.28;;;7.77;100.00